sensor_id;sensor_type;location;lat;lon;timestamp;temperature;humidity
7936;DHT22;4013;49.744;8.118;2023-06-14T00:01:59;16.90;99.90
7936;DHT22;4013;49.744;8.118;2023-06-14T00:04:26;16.90;99.90
7936;DHT22;4013;49.744;8.118;2023-06-14T00:06:53;16.90;99.90
7936;DHT22;4013;49.744;8.118;2023-06-14T00:09:22;16.90;99.90
7936;DHT22;4013;49.744;8.118;2023-06-14T00:11:50;16.80;99.90
7936;DHT22;4013;49.744;8.118;2023-06-14T00:14:17;16.80;99.90
7936;DHT22;4013;49.744;8.118;2023-06-14T00:16:44;16.70;99.90
7936;DHT22;4013;49.744;8.118;2023-06-14T00:19:11;16.70;99.90
7936;DHT22;4013;49.744;8.118;2023-06-14T00:21:38;16.70;99.90
7936;DHT22;4013;49.744;8.118;2023-06-14T00:24:06;16.70;99.90
7936;DHT22;4013;49.744;8.118;2023-06-14T00:26:34;16.70;99.90
7936;DHT22;4013;49.744;8.118;2023-06-14T00:29:02;16.60;99.90
7936;DHT22;4013;49.744;8.118;2023-06-14T00:31:29;16.60;99.90
7936;DHT22;4013;49.744;8.118;2023-06-14T00:33:56;16.60;99.90
7936;DHT22;4013;49.744;8.118;2023-06-14T00:36:23;16.50;99.90
7936;DHT22;4013;49.744;8.118;2023-06-14T00:38:50;16.50;99.90
7936;DHT22;4013;49.744;8.118;2023-06-14T00:41:17;16.50;99.90
7936;DHT22;4013;49.744;8.118;2023-06-14T00:43:44;16.50;99.90
7936;DHT22;4013;49.744;8.118;2023-06-14T00:46:12;16.50;99.90
7936;DHT22;4013;49.744;8.118;2023-06-14T00:48:39;16.40;99.90
7936;DHT22;4013;49.744;8.118;2023-06-14T00:51:07;16.50;99.90
7936;DHT22;4013;49.744;8.118;2023-06-14T00:53:34;16.50;99.90
7936;DHT22;4013;49.744;8.118;2023-06-14T00:56:02;16.50;99.90
7936;DHT22;4013;49.744;8.118;2023-06-14T00:58:29;16.50;99.90
7936;DHT22;4013;49.744;8.118;2023-06-14T01:00:57;16.40;99.90
7936;DHT22;4013;49.744;8.118;2023-06-14T01:03:25;16.30;99.90
7936;DHT22;4013;49.744;8.118;2023-06-14T01:05:59;16.30;99.90
7936;DHT22;4013;49.744;8.118;2023-06-14T01:08:43;16.20;99.90
7936;DHT22;4013;49.744;8.118;2023-06-14T01:11:18;16.30;99.90
7936;DHT22;4013;49.744;8.118;2023-06-14T01:13:47;16.40;99.90
7936;DHT22;4013;49.744;8.118;2023-06-14T01:16:16;16.50;99.90
7936;DHT22;4013;49.744;8.118;2023-06-14T01:18:45;16.50;99.90
7936;DHT22;4013;49.744;8.118;2023-06-14T01:21:20;16.50;99.90
7936;DHT22;4013;49.744;8.118;2023-06-14T01:23:49;16.40;99.90
7936;DHT22;4013;49.744;8.118;2023-06-14T01:26:19;16.30;99.90
7936;DHT22;4013;49.744;8.118;2023-06-14T01:28:46;16.30;99.90
7936;DHT22;4013;49.744;8.118;2023-06-14T01:31:17;16.20;99.90
7936;DHT22;4013;49.744;8.118;2023-06-14T01:33:48;16.00;99.90
7936;DHT22;4013;49.744;8.118;2023-06-14T01:36:16;16.00;99.90
7936;DHT22;4013;49.744;8.118;2023-06-14T01:38:44;15.90;99.90
7936;DHT22;4013;49.744;8.118;2023-06-14T01:41:14;15.80;99.90
7936;DHT22;4013;49.744;8.118;2023-06-14T01:43:41;15.80;99.90
7936;DHT22;4013;49.744;8.118;2023-06-14T01:46:09;15.90;99.90
7936;DHT22;4013;49.744;8.118;2023-06-14T01:48:37;15.90;99.90
7936;DHT22;4013;49.744;8.118;2023-06-14T01:51:04;16.00;99.90
7936;DHT22;4013;49.744;8.118;2023-06-14T01:53:31;15.90;99.90
7936;DHT22;4013;49.744;8.118;2023-06-14T01:55:58;15.90;99.90
7936;DHT22;4013;49.744;8.118;2023-06-14T01:58:27;15.90;99.90
7936;DHT22;4013;49.744;8.118;2023-06-14T02:00:54;15.90;99.90
7936;DHT22;4013;49.744;8.118;2023-06-14T02:03:22;15.80;99.90
7936;DHT22;4013;49.744;8.118;2023-06-14T02:05:50;15.80;99.90
7936;DHT22;4013;49.744;8.118;2023-06-14T02:08:17;15.70;99.90
7936;DHT22;4013;49.744;8.118;2023-06-14T02:10:44;15.70;99.90
7936;DHT22;4013;49.744;8.118;2023-06-14T02:13:11;15.60;99.90
7936;DHT22;4013;49.744;8.118;2023-06-14T02:15:39;15.60;99.90
7936;DHT22;4013;49.744;8.118;2023-06-14T02:18:09;15.50;99.90
7936;DHT22;4013;49.744;8.118;2023-06-14T02:20:37;15.50;99.90
7936;DHT22;4013;49.744;8.118;2023-06-14T02:23:04;15.40;99.90
7936;DHT22;4013;49.744;8.118;2023-06-14T02:25:33;15.40;99.90
7936;DHT22;4013;49.744;8.118;2023-06-14T02:28:00;15.40;99.90
7936;DHT22;4013;49.744;8.118;2023-06-14T02:30:27;15.30;99.90
7936;DHT22;4013;49.744;8.118;2023-06-14T02:32:55;15.20;99.90
7936;DHT22;4013;49.744;8.118;2023-06-14T02:35:22;15.20;99.90
7936;DHT22;4013;49.744;8.118;2023-06-14T02:37:52;15.20;99.90
7936;DHT22;4013;49.744;8.118;2023-06-14T02:40:19;15.10;99.90
7936;DHT22;4013;49.744;8.118;2023-06-14T02:42:46;15.10;99.90
7936;DHT22;4013;49.744;8.118;2023-06-14T02:45:13;15.10;99.90
7936;DHT22;4013;49.744;8.118;2023-06-14T02:47:40;15.10;99.90
7936;DHT22;4013;49.744;8.118;2023-06-14T02:50:09;15.10;99.90
7936;DHT22;4013;49.744;8.118;2023-06-14T02:52:36;15.00;99.90
7936;DHT22;4013;49.744;8.118;2023-06-14T02:55:04;15.00;99.90
7936;DHT22;4013;49.744;8.118;2023-06-14T02:57:31;15.00;99.90
7936;DHT22;4013;49.744;8.118;2023-06-14T02:59:58;14.90;99.90
7936;DHT22;4013;49.744;8.118;2023-06-14T03:02:26;14.90;99.90
7936;DHT22;4013;49.744;8.118;2023-06-14T03:04:53;14.90;99.90
7936;DHT22;4013;49.744;8.118;2023-06-14T03:07:21;14.90;99.90
7936;DHT22;4013;49.744;8.118;2023-06-14T03:09:49;14.90;99.90
7936;DHT22;4013;49.744;8.118;2023-06-14T03:12:15;14.90;99.90
7936;DHT22;4013;49.744;8.118;2023-06-14T03:14:42;15.00;99.90
7936;DHT22;4013;49.744;8.118;2023-06-14T03:17:11;15.10;99.90
7936;DHT22;4013;49.744;8.118;2023-06-14T03:19:38;15.10;99.90
7936;DHT22;4013;49.744;8.118;2023-06-14T03:22:06;15.00;99.90
7936;DHT22;4013;49.744;8.118;2023-06-14T03:24:35;15.00;99.90
7936;DHT22;4013;49.744;8.118;2023-06-14T03:27:03;15.10;99.90
7936;DHT22;4013;49.744;8.118;2023-06-14T03:29:30;15.10;99.90
7936;DHT22;4013;49.744;8.118;2023-06-14T03:31:58;15.10;99.90
7936;DHT22;4013;49.744;8.118;2023-06-14T03:34:25;15.10;99.90
7936;DHT22;4013;49.744;8.118;2023-06-14T03:36:52;15.10;99.90
7936;DHT22;4013;49.744;8.118;2023-06-14T03:39:19;15.10;99.90
7936;DHT22;4013;49.744;8.118;2023-06-14T03:41:48;15.10;99.90
7936;DHT22;4013;49.744;8.118;2023-06-14T03:44:16;15.10;99.90
7936;DHT22;4013;49.744;8.118;2023-06-14T03:46:44;15.00;99.90
7936;DHT22;4013;49.744;8.118;2023-06-14T03:49:11;15.10;99.90
7936;DHT22;4013;49.744;8.118;2023-06-14T03:51:38;15.10;99.90
7936;DHT22;4013;49.744;8.118;2023-06-14T03:54:06;15.30;99.90
7936;DHT22;4013;49.744;8.118;2023-06-14T03:56:33;15.50;99.90
7936;DHT22;4013;49.744;8.118;2023-06-14T03:59:02;15.70;99.90
7936;DHT22;4013;49.744;8.118;2023-06-14T04:01:29;15.80;99.90
7936;DHT22;4013;49.744;8.118;2023-06-14T04:03:56;15.80;99.90
7936;DHT22;4013;49.744;8.118;2023-06-14T04:06:24;15.90;99.90
7936;DHT22;4013;49.744;8.118;2023-06-14T04:08:58;16.10;99.90
7936;DHT22;4013;49.744;8.118;2023-06-14T04:11:30;16.20;99.90
7936;DHT22;4013;49.744;8.118;2023-06-14T04:13:58;16.40;99.90
7936;DHT22;4013;49.744;8.118;2023-06-14T04:16:26;16.50;99.90
7936;DHT22;4013;49.744;8.118;2023-06-14T04:18:54;16.70;99.90
7936;DHT22;4013;49.744;8.118;2023-06-14T04:21:21;16.80;99.90
7936;DHT22;4013;49.744;8.118;2023-06-14T04:23:49;16.90;99.90
7936;DHT22;4013;49.744;8.118;2023-06-14T04:26:18;17.20;99.90
7936;DHT22;4013;49.744;8.118;2023-06-14T04:28:46;17.20;99.90
7936;DHT22;4013;49.744;8.118;2023-06-14T04:31:13;17.40;99.90
7936;DHT22;4013;49.744;8.118;2023-06-14T04:33:42;17.50;99.90
7936;DHT22;4013;49.744;8.118;2023-06-14T04:36:11;17.50;99.90
7936;DHT22;4013;49.744;8.118;2023-06-14T04:38:38;17.60;99.90
7936;DHT22;4013;49.744;8.118;2023-06-14T04:41:06;17.70;99.90
7936;DHT22;4013;49.744;8.118;2023-06-14T04:43:37;17.90;99.90
7936;DHT22;4013;49.744;8.118;2023-06-14T04:46:05;18.00;99.90
7936;DHT22;4013;49.744;8.118;2023-06-14T04:48:35;18.20;99.90
7936;DHT22;4013;49.744;8.118;2023-06-14T04:51:03;18.20;99.90
7936;DHT22;4013;49.744;8.118;2023-06-14T04:53:31;18.30;99.90
7936;DHT22;4013;49.744;8.118;2023-06-14T04:55:58;18.50;99.90
7936;DHT22;4013;49.744;8.118;2023-06-14T04:58:26;18.50;99.90
7936;DHT22;4013;49.744;8.118;2023-06-14T05:00:53;18.60;99.90
7936;DHT22;4013;49.744;8.118;2023-06-14T05:03:21;18.60;99.90
7936;DHT22;4013;49.744;8.118;2023-06-14T05:05:49;18.80;99.90
7936;DHT22;4013;49.744;8.118;2023-06-14T05:08:20;18.90;99.90
7936;DHT22;4013;49.744;8.118;2023-06-14T05:10:49;19.00;99.90
7936;DHT22;4013;49.744;8.118;2023-06-14T05:13:16;19.10;99.90
7936;DHT22;4013;49.744;8.118;2023-06-14T05:15:43;19.10;99.90
7936;DHT22;4013;49.744;8.118;2023-06-14T05:18:10;19.20;99.90
7936;DHT22;4013;49.744;8.118;2023-06-14T05:20:38;19.30;99.90
7936;DHT22;4013;49.744;8.118;2023-06-14T05:23:07;19.30;99.90
7936;DHT22;4013;49.744;8.118;2023-06-14T05:25:35;19.30;99.90
7936;DHT22;4013;49.744;8.118;2023-06-14T05:28:03;19.20;99.90
7936;DHT22;4013;49.744;8.118;2023-06-14T05:30:30;19.20;99.90
7936;DHT22;4013;49.744;8.118;2023-06-14T05:32:58;19.00;99.90
7936;DHT22;4013;49.744;8.118;2023-06-14T05:35:25;19.00;99.90
7936;DHT22;4013;49.744;8.118;2023-06-14T05:37:53;19.00;99.90
7936;DHT22;4013;49.744;8.118;2023-06-14T05:40:20;19.00;99.90
7936;DHT22;4013;49.744;8.118;2023-06-14T05:42:48;19.10;99.90
7936;DHT22;4013;49.744;8.118;2023-06-14T05:45:16;19.00;99.90
7936;DHT22;4013;49.744;8.118;2023-06-14T05:47:43;19.00;99.90
7936;DHT22;4013;49.744;8.118;2023-06-14T05:50:10;19.00;99.90
7936;DHT22;4013;49.744;8.118;2023-06-14T05:52:37;19.20;99.90
7936;DHT22;4013;49.744;8.118;2023-06-14T05:55:04;19.20;99.90
7936;DHT22;4013;49.744;8.118;2023-06-14T05:57:31;19.20;99.90
7936;DHT22;4013;49.744;8.118;2023-06-14T06:00:00;19.20;99.90
7936;DHT22;4013;49.744;8.118;2023-06-14T06:02:31;19.30;99.90
7936;DHT22;4013;49.744;8.118;2023-06-14T06:04:58;19.30;99.90
7936;DHT22;4013;49.744;8.118;2023-06-14T06:07:25;19.30;99.90
7936;DHT22;4013;49.744;8.118;2023-06-14T06:09:52;19.40;99.90
7936;DHT22;4013;49.744;8.118;2023-06-14T06:12:18;19.40;99.90
7936;DHT22;4013;49.744;8.118;2023-06-14T06:14:45;19.70;99.90
7936;DHT22;4013;49.744;8.118;2023-06-14T06:17:14;19.70;99.90
7936;DHT22;4013;49.744;8.118;2023-06-14T06:19:41;19.70;99.90
7936;DHT22;4013;49.744;8.118;2023-06-14T06:22:08;19.60;99.90
7936;DHT22;4013;49.744;8.118;2023-06-14T06:24:35;19.50;99.90
7936;DHT22;4013;49.744;8.118;2023-06-14T06:27:02;19.50;99.90
7936;DHT22;4013;49.744;8.118;2023-06-14T06:29:29;19.60;99.90
7936;DHT22;4013;49.744;8.118;2023-06-14T06:31:55;19.70;99.90
7936;DHT22;4013;49.744;8.118;2023-06-14T06:34:24;19.70;99.80
7936;DHT22;4013;49.744;8.118;2023-06-14T06:36:51;19.90;99.90
7936;DHT22;4013;49.744;8.118;2023-06-14T06:39:18;20.00;99.90
7936;DHT22;4013;49.744;8.118;2023-06-14T06:41:45;19.90;99.60
7936;DHT22;4013;49.744;8.118;2023-06-14T06:44:12;20.00;99.90
7936;DHT22;4013;49.744;8.118;2023-06-14T06:46:39;20.00;98.30
7936;DHT22;4013;49.744;8.118;2023-06-14T06:49:08;19.90;98.40
7936;DHT22;4013;49.744;8.118;2023-06-14T06:51:36;19.80;98.60
7936;DHT22;4013;49.744;8.118;2023-06-14T06:54:03;19.90;99.00
7936;DHT22;4013;49.744;8.118;2023-06-14T06:56:31;20.10;98.80
7936;DHT22;4013;49.744;8.118;2023-06-14T06:58:58;20.10;98.50
7936;DHT22;4013;49.744;8.118;2023-06-14T07:01:25;20.20;98.10
7936;DHT22;4013;49.744;8.118;2023-06-14T07:03:54;20.20;97.50
7936;DHT22;4013;49.744;8.118;2023-06-14T07:06:21;20.30;98.30
7936;DHT22;4013;49.744;8.118;2023-06-14T07:08:50;20.30;98.00
7936;DHT22;4013;49.744;8.118;2023-06-14T07:11:16;20.30;97.50
7936;DHT22;4013;49.744;8.118;2023-06-14T07:13:43;20.50;97.60
7936;DHT22;4013;49.744;8.118;2023-06-14T07:16:11;20.60;96.80
7936;DHT22;4013;49.744;8.118;2023-06-14T07:18:37;20.70;96.80
7936;DHT22;4013;49.744;8.118;2023-06-14T07:21:04;20.80;95.90
7936;DHT22;4013;49.744;8.118;2023-06-14T07:23:31;20.80;95.90
7936;DHT22;4013;49.744;8.118;2023-06-14T07:26:00;20.70;94.90
7936;DHT22;4013;49.744;8.118;2023-06-14T07:28:27;20.60;94.80
7936;DHT22;4013;49.744;8.118;2023-06-14T07:30:54;20.60;95.40
7936;DHT22;4013;49.744;8.118;2023-06-14T07:33:21;20.60;95.70
7936;DHT22;4013;49.744;8.118;2023-06-14T07:35:48;20.80;95.30
7936;DHT22;4013;49.744;8.118;2023-06-14T07:38:16;20.80;94.70
7936;DHT22;4013;49.744;8.118;2023-06-14T07:40:43;20.80;95.10
7936;DHT22;4013;49.744;8.118;2023-06-14T07:43:11;20.80;94.60
7936;DHT22;4013;49.744;8.118;2023-06-14T07:45:38;20.70;93.20
7936;DHT22;4013;49.744;8.118;2023-06-14T07:48:05;20.60;93.60
7936;DHT22;4013;49.744;8.118;2023-06-14T07:50:32;20.70;94.00
7936;DHT22;4013;49.744;8.118;2023-06-14T07:52:59;20.80;94.20
7936;DHT22;4013;49.744;8.118;2023-06-14T07:55:26;20.80;93.80
7936;DHT22;4013;49.744;8.118;2023-06-14T07:57:54;20.80;93.60
7936;DHT22;4013;49.744;8.118;2023-06-14T08:00:22;20.90;94.10
7936;DHT22;4013;49.744;8.118;2023-06-14T08:02:49;20.90;94.00
7936;DHT22;4013;49.744;8.118;2023-06-14T08:05:17;20.90;93.80
7936;DHT22;4013;49.744;8.118;2023-06-14T08:07:44;20.90;94.40
7936;DHT22;4013;49.744;8.118;2023-06-14T08:10:11;21.00;92.70
7936;DHT22;4013;49.744;8.118;2023-06-14T08:12:38;21.10;93.00
7936;DHT22;4013;49.744;8.118;2023-06-14T08:15:06;21.30;92.70
7936;DHT22;4013;49.744;8.118;2023-06-14T08:17:35;21.40;92.30
7936;DHT22;4013;49.744;8.118;2023-06-14T08:20:02;21.60;92.40
7936;DHT22;4013;49.744;8.118;2023-06-14T08:22:31;21.70;92.80
7936;DHT22;4013;49.744;8.118;2023-06-14T08:24:59;21.70;91.80
7936;DHT22;4013;49.744;8.118;2023-06-14T08:27:26;21.80;91.40
7936;DHT22;4013;49.744;8.118;2023-06-14T08:29:54;21.60;89.70
7936;DHT22;4013;49.744;8.118;2023-06-14T08:32:21;21.50;90.50
7936;DHT22;4013;49.744;8.118;2023-06-14T08:34:50;21.40;92.50
7936;DHT22;4013;49.744;8.118;2023-06-14T08:37:17;21.50;90.60
7936;DHT22;4013;49.744;8.118;2023-06-14T08:39:44;21.50;90.60
7936;DHT22;4013;49.744;8.118;2023-06-14T08:42:12;21.60;91.10
7936;DHT22;4013;49.744;8.118;2023-06-14T08:44:41;21.50;87.60
7936;DHT22;4013;49.744;8.118;2023-06-14T08:47:09;21.60;86.40
7936;DHT22;4013;49.744;8.118;2023-06-14T08:49:38;21.60;86.60
7936;DHT22;4013;49.744;8.118;2023-06-14T08:52:09;21.50;87.80
7936;DHT22;4013;49.744;8.118;2023-06-14T08:54:38;21.40;88.10
7936;DHT22;4013;49.744;8.118;2023-06-14T08:57:10;21.50;88.20
7936;DHT22;4013;49.744;8.118;2023-06-14T08:59:45;21.50;87.50
7936;DHT22;4013;49.744;8.118;2023-06-14T09:02:15;21.60;88.30
7936;DHT22;4013;49.744;8.118;2023-06-14T09:04:43;21.60;85.90
7936;DHT22;4013;49.744;8.118;2023-06-14T09:07:12;21.70;85.00
7936;DHT22;4013;49.744;8.118;2023-06-14T09:09:39;21.80;86.20
7936;DHT22;4013;49.744;8.118;2023-06-14T09:12:08;21.70;88.10
7936;DHT22;4013;49.744;8.118;2023-06-14T09:14:37;21.60;88.00
7936;DHT22;4013;49.744;8.118;2023-06-14T09:17:06;21.70;88.50
7936;DHT22;4013;49.744;8.118;2023-06-14T09:19:34;21.80;81.10
7936;DHT22;4013;49.744;8.118;2023-06-14T09:22:01;21.80;80.00
7936;DHT22;4013;49.744;8.118;2023-06-14T09:24:30;21.70;80.60
7936;DHT22;4013;49.744;8.118;2023-06-14T09:26:57;21.90;81.50
7936;DHT22;4013;49.744;8.118;2023-06-14T09:29:24;21.90;79.20
7936;DHT22;4013;49.744;8.118;2023-06-14T09:31:52;21.90;82.10
7936;DHT22;4013;49.744;8.118;2023-06-14T09:34:20;22.00;81.80
7936;DHT22;4013;49.744;8.118;2023-06-14T09:36:49;21.90;79.70
7936;DHT22;4013;49.744;8.118;2023-06-14T09:39:17;21.90;79.20
7936;DHT22;4013;49.744;8.118;2023-06-14T09:41:46;22.00;78.10
7936;DHT22;4013;49.744;8.118;2023-06-14T09:44:13;22.00;74.80
7936;DHT22;4013;49.744;8.118;2023-06-14T09:46:39;22.10;74.50
7936;DHT22;4013;49.744;8.118;2023-06-14T09:49:08;22.00;75.80
7936;DHT22;4013;49.744;8.118;2023-06-14T09:51:41;22.10;76.10
7936;DHT22;4013;49.744;8.118;2023-06-14T09:54:14;22.20;76.10
7936;DHT22;4013;49.744;8.118;2023-06-14T09:56:46;22.20;77.40
7936;DHT22;4013;49.744;8.118;2023-06-14T09:59:17;22.20;77.70
7936;DHT22;4013;49.744;8.118;2023-06-14T10:01:46;22.30;76.50
7936;DHT22;4013;49.744;8.118;2023-06-14T10:04:15;22.30;74.20
7936;DHT22;4013;49.744;8.118;2023-06-14T10:06:45;22.30;74.00
7936;DHT22;4013;49.744;8.118;2023-06-14T10:09:12;22.30;74.40
7936;DHT22;4013;49.744;8.118;2023-06-14T10:11:40;22.30;75.30
7936;DHT22;4013;49.744;8.118;2023-06-14T10:14:11;22.40;75.90
7936;DHT22;4013;49.744;8.118;2023-06-14T10:16:43;22.60;74.60
7936;DHT22;4013;49.744;8.118;2023-06-14T10:19:18;22.60;74.70
7936;DHT22;4013;49.744;8.118;2023-06-14T10:21:54;22.60;74.40
7936;DHT22;4013;49.744;8.118;2023-06-14T10:24:29;22.60;75.50
7936;DHT22;4013;49.744;8.118;2023-06-14T10:26:58;22.50;74.60
7936;DHT22;4013;49.744;8.118;2023-06-14T10:29:28;22.30;76.70
7936;DHT22;4013;49.744;8.118;2023-06-14T10:31:58;22.40;76.80
7936;DHT22;4013;49.744;8.118;2023-06-14T10:34:27;22.50;77.50
7936;DHT22;4013;49.744;8.118;2023-06-14T10:37:02;22.60;77.50
7936;DHT22;4013;49.744;8.118;2023-06-14T10:39:30;22.60;78.20
7936;DHT22;4013;49.744;8.118;2023-06-14T10:42:01;22.70;80.90
7936;DHT22;4013;49.744;8.118;2023-06-14T10:44:41;22.80;79.50
7936;DHT22;4013;49.744;8.118;2023-06-14T10:49:53;23.00;76.60
7936;DHT22;4013;49.744;8.118;2023-06-14T10:52:25;23.00;78.00
7936;DHT22;4013;49.744;8.118;2023-06-14T10:55:02;23.10;76.70
7936;DHT22;4013;49.744;8.118;2023-06-14T10:57:32;23.00;78.00
7936;DHT22;4013;49.744;8.118;2023-06-14T11:00:01;23.00;77.20
7936;DHT22;4013;49.744;8.118;2023-06-14T11:03:04;23.10;77.30
7936;DHT22;4013;49.744;8.118;2023-06-14T11:05:48;23.00;75.70
7936;DHT22;4013;49.744;8.118;2023-06-14T11:08:45;22.90;78.00
7936;DHT22;4013;49.744;8.118;2023-06-14T11:11:17;22.70;76.20
7936;DHT22;4013;49.744;8.118;2023-06-14T11:13:45;22.70;76.60
7936;DHT22;4013;49.744;8.118;2023-06-14T11:16:14;22.80;73.80
7936;DHT22;4013;49.744;8.118;2023-06-14T11:18:43;22.90;75.30
7936;DHT22;4013;49.744;8.118;2023-06-14T11:21:11;23.00;74.70
7936;DHT22;4013;49.744;8.118;2023-06-14T11:23:38;22.90;76.10
7936;DHT22;4013;49.744;8.118;2023-06-14T11:26:05;22.90;73.70
7936;DHT22;4013;49.744;8.118;2023-06-14T11:28:36;23.00;74.20
7936;DHT22;4013;49.744;8.118;2023-06-14T11:31:04;22.90;74.20
7936;DHT22;4013;49.744;8.118;2023-06-14T11:33:32;22.60;74.30
7936;DHT22;4013;49.744;8.118;2023-06-14T11:36:02;22.70;75.40
7936;DHT22;4013;49.744;8.118;2023-06-14T11:38:30;22.80;75.20
7936;DHT22;4013;49.744;8.118;2023-06-14T11:40:59;22.70;74.90
7936;DHT22;4013;49.744;8.118;2023-06-14T11:43:27;22.70;75.90
7936;DHT22;4013;49.744;8.118;2023-06-14T11:45:54;22.80;75.60
7936;DHT22;4013;49.744;8.118;2023-06-14T11:48:21;22.90;72.80
7936;DHT22;4013;49.744;8.118;2023-06-14T11:50:51;23.00;71.20
7936;DHT22;4013;49.744;8.118;2023-06-14T11:53:18;23.00;71.90
7936;DHT22;4013;49.744;8.118;2023-06-14T11:55:45;22.70;72.30
7936;DHT22;4013;49.744;8.118;2023-06-14T11:58:13;22.70;74.90
7936;DHT22;4013;49.744;8.118;2023-06-14T12:00:41;22.80;73.70
7936;DHT22;4013;49.744;8.118;2023-06-14T12:03:08;22.90;71.40
7936;DHT22;4013;49.744;8.118;2023-06-14T12:05:36;23.00;71.20
7936;DHT22;4013;49.744;8.118;2023-06-14T12:08:06;23.00;72.70
7936;DHT22;4013;49.744;8.118;2023-06-14T12:10:40;22.90;70.50
7936;DHT22;4013;49.744;8.118;2023-06-14T12:13:09;22.80;72.70
7936;DHT22;4013;49.744;8.118;2023-06-14T12:15:36;22.90;70.10
7936;DHT22;4013;49.744;8.118;2023-06-14T12:20:30;23.20;71.20
7936;DHT22;4013;49.744;8.118;2023-06-14T12:22:58;23.30;70.10
7936;DHT22;4013;49.744;8.118;2023-06-14T12:25:30;23.50;68.60
7936;DHT22;4013;49.744;8.118;2023-06-14T12:27:58;23.60;66.60
7936;DHT22;4013;49.744;8.118;2023-06-14T12:30:25;23.70;66.40
7936;DHT22;4013;49.744;8.118;2023-06-14T12:32:52;23.70;66.10
7936;DHT22;4013;49.744;8.118;2023-06-14T12:35:19;23.70;66.90
7936;DHT22;4013;49.744;8.118;2023-06-14T12:37:46;23.80;67.10
7936;DHT22;4013;49.744;8.118;2023-06-14T12:40:14;23.90;65.90
7936;DHT22;4013;49.744;8.118;2023-06-14T12:42:44;23.90;65.30
7936;DHT22;4013;49.744;8.118;2023-06-14T12:45:13;23.90;65.40
7936;DHT22;4013;49.744;8.118;2023-06-14T12:47:40;24.00;66.00
7936;DHT22;4013;49.744;8.118;2023-06-14T12:50:08;23.80;65.70
7936;DHT22;4013;49.744;8.118;2023-06-14T12:52:35;23.90;66.20
7936;DHT22;4013;49.744;8.118;2023-06-14T12:55:03;23.90;66.70
7936;DHT22;4013;49.744;8.118;2023-06-14T12:57:31;23.80;64.30
7936;DHT22;4013;49.744;8.118;2023-06-14T12:59:59;23.60;63.50
7936;DHT22;4013;49.744;8.118;2023-06-14T13:02:27;23.50;63.10
7936;DHT22;4013;49.744;8.118;2023-06-14T13:04:54;23.40;63.30
7936;DHT22;4013;49.744;8.118;2023-06-14T13:07:22;23.40;64.10
7936;DHT22;4013;49.744;8.118;2023-06-14T13:09:49;23.60;65.00
7936;DHT22;4013;49.744;8.118;2023-06-14T13:12:16;23.80;65.00
7936;DHT22;4013;49.744;8.118;2023-06-14T13:14:43;24.00;65.60
7936;DHT22;4013;49.744;8.118;2023-06-14T13:17:11;23.90;64.80
7936;DHT22;4013;49.744;8.118;2023-06-14T13:19:38;23.80;65.60
7936;DHT22;4013;49.744;8.118;2023-06-14T13:22:05;23.80;62.60
7936;DHT22;4013;49.744;8.118;2023-06-14T13:24:33;23.60;63.20
7936;DHT22;4013;49.744;8.118;2023-06-14T13:27:00;23.50;65.10
7936;DHT22;4013;49.744;8.118;2023-06-14T13:29:27;23.50;66.80
7936;DHT22;4013;49.744;8.118;2023-06-14T13:31:56;23.30;66.10
7936;DHT22;4013;49.744;8.118;2023-06-14T13:34:24;23.20;65.00
7936;DHT22;4013;49.744;8.118;2023-06-14T13:36:51;23.20;65.60
7936;DHT22;4013;49.744;8.118;2023-06-14T13:39:19;23.00;64.60
7936;DHT22;4013;49.744;8.118;2023-06-14T13:41:46;23.20;66.10
7936;DHT22;4013;49.744;8.118;2023-06-14T13:44:13;23.30;65.10
7936;DHT22;4013;49.744;8.118;2023-06-14T13:46:44;23.50;65.80
7936;DHT22;4013;49.744;8.118;2023-06-14T13:49:11;23.80;64.00
7936;DHT22;4013;49.744;8.118;2023-06-14T13:51:42;23.80;63.40
7936;DHT22;4013;49.744;8.118;2023-06-14T13:54:12;23.70;64.50
7936;DHT22;4013;49.744;8.118;2023-06-14T13:56:40;23.80;66.10
7936;DHT22;4013;49.744;8.118;2023-06-14T13:59:07;23.90;64.20
7936;DHT22;4013;49.744;8.118;2023-06-14T14:01:35;23.80;64.40
7936;DHT22;4013;49.744;8.118;2023-06-14T14:04:02;23.70;64.00
7936;DHT22;4013;49.744;8.118;2023-06-14T14:06:29;23.50;63.30
7936;DHT22;4013;49.744;8.118;2023-06-14T14:08:57;23.40;63.70
7936;DHT22;4013;49.744;8.118;2023-06-14T14:11:24;23.40;63.90
7936;DHT22;4013;49.744;8.118;2023-06-14T14:13:51;23.50;63.60
7936;DHT22;4013;49.744;8.118;2023-06-14T14:16:18;23.70;63.50
7936;DHT22;4013;49.744;8.118;2023-06-14T14:18:46;23.80;62.70
7936;DHT22;4013;49.744;8.118;2023-06-14T14:21:13;23.80;63.50
7936;DHT22;4013;49.744;8.118;2023-06-14T14:23:40;24.00;63.90
7936;DHT22;4013;49.744;8.118;2023-06-14T14:26:08;24.20;62.90
7936;DHT22;4013;49.744;8.118;2023-06-14T14:28:35;24.30;60.00
7936;DHT22;4013;49.744;8.118;2023-06-14T14:31:02;24.40;60.50
7936;DHT22;4013;49.744;8.118;2023-06-14T14:33:29;24.40;61.10
7936;DHT22;4013;49.744;8.118;2023-06-14T14:35:56;24.40;60.00
7936;DHT22;4013;49.744;8.118;2023-06-14T14:38:23;24.50;59.70
7936;DHT22;4013;49.744;8.118;2023-06-14T14:40:50;24.50;58.10
7936;DHT22;4013;49.744;8.118;2023-06-14T14:43:18;24.50;57.90
7936;DHT22;4013;49.744;8.118;2023-06-14T14:45:45;24.50;59.40
7936;DHT22;4013;49.744;8.118;2023-06-14T14:48:12;24.40;58.10
7936;DHT22;4013;49.744;8.118;2023-06-14T14:50:39;24.20;58.60
7936;DHT22;4013;49.744;8.118;2023-06-14T14:53:06;23.90;58.90
7936;DHT22;4013;49.744;8.118;2023-06-14T14:55:33;23.90;58.10
7936;DHT22;4013;49.744;8.118;2023-06-14T14:58:01;23.90;58.60
7936;DHT22;4013;49.744;8.118;2023-06-14T15:00:31;24.00;59.00
7936;DHT22;4013;49.744;8.118;2023-06-14T15:02:58;24.30;58.30
7936;DHT22;4013;49.744;8.118;2023-06-14T15:05:25;24.40;56.40
7936;DHT22;4013;49.744;8.118;2023-06-14T15:07:52;24.40;57.70
7936;DHT22;4013;49.744;8.118;2023-06-14T15:10:19;24.20;58.50
7936;DHT22;4013;49.744;8.118;2023-06-14T15:12:46;24.20;58.80
7936;DHT22;4013;49.744;8.118;2023-06-14T15:15:13;24.30;60.10
7936;DHT22;4013;49.744;8.118;2023-06-14T15:17:41;24.50;58.70
7936;DHT22;4013;49.744;8.118;2023-06-14T15:20:09;24.40;58.30
7936;DHT22;4013;49.744;8.118;2023-06-14T15:22:38;24.30;58.60
7936;DHT22;4013;49.744;8.118;2023-06-14T15:25:06;24.20;58.70
7936;DHT22;4013;49.744;8.118;2023-06-14T15:27:33;24.30;58.70
7936;DHT22;4013;49.744;8.118;2023-06-14T15:29:59;24.40;58.50
7936;DHT22;4013;49.744;8.118;2023-06-14T15:32:26;24.40;58.50
7936;DHT22;4013;49.744;8.118;2023-06-14T15:34:55;24.50;58.40
7936;DHT22;4013;49.744;8.118;2023-06-14T15:37:22;24.60;57.70
7936;DHT22;4013;49.744;8.118;2023-06-14T15:39:48;24.50;57.70
7936;DHT22;4013;49.744;8.118;2023-06-14T15:42:15;24.50;56.80
7936;DHT22;4013;49.744;8.118;2023-06-14T15:44:42;24.30;56.70
7936;DHT22;4013;49.744;8.118;2023-06-14T15:47:09;24.30;57.90
7936;DHT22;4013;49.744;8.118;2023-06-14T15:49:36;24.20;57.00
7936;DHT22;4013;49.744;8.118;2023-06-14T15:52:05;24.00;56.80
7936;DHT22;4013;49.744;8.118;2023-06-14T15:54:32;23.90;57.00
7936;DHT22;4013;49.744;8.118;2023-06-14T15:56:59;23.80;56.90
7936;DHT22;4013;49.744;8.118;2023-06-14T15:59:26;23.80;56.40
7936;DHT22;4013;49.744;8.118;2023-06-14T16:01:54;23.70;56.60
7936;DHT22;4013;49.744;8.118;2023-06-14T16:04:20;23.70;56.30
7936;DHT22;4013;49.744;8.118;2023-06-14T16:06:47;23.70;56.80
7936;DHT22;4013;49.744;8.118;2023-06-14T16:09:16;23.90;56.50
7936;DHT22;4013;49.744;8.118;2023-06-14T16:11:43;23.90;56.70
7936;DHT22;4013;49.744;8.118;2023-06-14T16:14:10;24.00;57.30